首页
METAR-TAF:

METAR-TAF

机场 :

Rice Lake Regional Airport (Carl's Field)

Rice Lake, 威斯康辛州, 美国

纬度: 45-25-05N, 经度: 091-46-25W, 海拔: 337米

当前天气观测

该预报发布于24分钟前的22:35 UTC
静风
温度 25°C
湿度 34%
气压 1018 hPa
能見度: 11.3公里
天空无云

METAR: KRPD 142235Z AUTO 00000KT 7SM CLR 25/08 A3007 RMK AO2 T02490083

时间: 17:59 (22:59 UTC)


TAF: 丢失

超过4000个机场的气象观测和天气预报(METAR&TAF报告)。

可查询的气象台以黄色和红色小点在地图上表示。

将鼠标移到小点上方,可查看气象台名称。

然后点击查看天气观测和预报。

如需切换地图:点击带黑十字的绿色按钮放大地图;点击带横线的绿色按钮缩小地图;或者点击绿色箭头查看邻近地区的地图。


METAR-TAF: